Time;durP1;ratioP1;P1;durP2;ratioP2;P2;SDS_P1;SDS_P2;PMS_P1;PMS_P2;Temp;Humidity;BMP_temperature;BMP_pressure;BME280_temperature;BME280_humidity;BME280_pressure;Samples;Min_cycle;Max_cycle;Signal;HPM_P1;HPM_P2
2022/03/05 00:01:38;;;;;;;27.60;11.80;;;;;;;0.07;76.08;100746.75;21024369;28;20040;-66
2022/03/05 00:11:40;;;;;;;26.58;12.48;;;;;;;0.14;76.45;100759.00;21023770;28;20045;-66
2022/03/05 00:21:42;;;;;;;26.95;11.88;;;;;;;0.23;76.11;100750.69;21025834;28;20052;-66
2022/03/05 00:31:43;;;;;;;27.35;11.07;;;;;;;0.33;75.35;100749.28;21024325;28;20051;-67
2022/03/05 00:41:45;;;;;;;28.25;12.05;;;;;;;0.14;77.15;100748.69;21024297;28;20056;-66
2022/03/05 00:51:46;;;;;;;28.20;11.40;;;;;;;0.14;77.51;100756.41;21022135;28;20052;-66
2022/03/05 01:01:48;;;;;;;26.08;10.70;;;;;;;0.04;77.95;100756.94;21021209;28;20037;-66
2022/03/05 01:11:50;;;;;;;30.05;12.35;;;;;;;-0.06;78.49;100760.06;21020944;28;20049;-66
2022/03/05 01:21:51;;;;;;;26.40;11.57;;;;;;;-0.19;80.39;100757.88;21021911;28;20124;-66
2022/03/05 01:31:53;;;;;;;26.30;11.52;;;;;;;-0.33;80.67;100750.59;21036562;28;20067;-66
2022/03/05 01:41:56;;;;;;;28.48;12.10;;;;;;;-0.42;82.01;100755.44;21036756;28;20462;-66
2022/03/05 01:51:57;;;;;;;33.25;12.77;;;;;;;-0.45;81.94;100760.47;21034526;28;20110;-66
2022/03/05 02:01:59;;;;;;;30.88;12.70;;;;;;;-0.56;82.43;100757.53;21033114;28;20071;-66
2022/03/05 02:12:02;;;;;;;32.40;13.02;;;;;;;-0.61;83.54;100750.47;21032914;28;20055;-66
2022/03/05 02:22:03;;;;;;;29.15;12.63;;;;;;;-0.79;84.72;100749.00;21033525;28;20559;-67
2022/03/05 02:32:05;;;;;;;29.08;12.45;;;;;;;-0.87;85.33;100754.69;21031001;28;20052;-66
2022/03/05 02:42:07;;;;;;;33.80;13.88;;;;;;;-0.98;85.98;100751.75;21031869;28;20481;-67
2022/03/05 02:52:09;;;;;;;34.72;12.98;;;;;;;-1.05;87.17;100760.06;21031571;28;20512;-67
2022/03/05 03:02:10;;;;;;;31.95;13.93;;;;;;;-1.04;86.35;100746.38;21029951;28;20410;-66
2022/03/05 03:12:12;;;;;;;32.85;13.73;;;;;;;-1.19;87.70;100763.81;21027352;28;20602;-66
2022/03/05 03:22:14;;;;;;;30.95;12.73;;;;;;;-1.17;88.00;100759.59;21028332;28;20528;-66
2022/03/05 03:32:16;;;;;;;28.02;11.90;;;;;;;-0.94;86.10;100757.88;21028251;28;20052;-66
2022/03/05 03:42:18;;;;;;;29.63;12.95;;;;;;;-0.95;85.92;100767.28;21028212;28;20052;-66
2022/03/05 03:52:19;;;;;;;31.55;11.88;;;;;;;-1.06;86.89;100781.41;21025623;28;20497;-66
2022/03/05 04:02:22;;;;;;;31.33;11.63;;;;;;;-1.20;87.64;100782.59;21024181;28;20044;-66
2022/03/05 04:12:24;;;;;;;31.33;13.20;;;;;;;-1.30;88.86;100789.94;21024457;28;20056;-66
2022/03/05 04:22:26;;;;;;;32.75;13.10;;;;;;;-1.44;89.90;100785.97;21023706;28;20545;-66
2022/03/05 04:32:27;;;;;;;30.25;13.60;;;;;;;-1.47;90.34;100801.28;21024282;28;20505;-66
2022/03/05 04:42:29;;;;;;;32.92;13.07;;;;;;;-1.54;91.32;100801.84;21021303;28;20110;-66
2022/03/05 04:52:30;;;;;;;33.63;13.52;;;;;;;-1.63;91.80;100807.50;21022068;28;20048;-66
2022/03/05 05:02:32;;;;;;;30.55;13.35;;;;;;;-1.81;93.58;100819.59;21031975;28;20048;-65
2022/03/05 05:12:34;;;;;;;33.85;14.48;;;;;;;-1.81;93.64;100815.34;21039490;28;20086;-65
2022/03/05 05:22:35;;;;;;;40.17;15.60;;;;;;;-1.94;94.28;100838.75;21038629;28;20048;-65
2022/03/05 05:32:37;;;;;;;37.58;15.13;;;;;;;-1.91;94.18;100828.63;21035745;28;20101;-66
2022/03/05 05:42:38;;;;;;;38.97;16.17;;;;;;;-1.92;94.69;100847.38;21035231;28;20044;-65
2022/03/05 05:52:40;;;;;;;33.75;13.90;;;;;;;-1.83;93.67;100847.75;21036296;28;20101;-66
2022/03/05 06:02:41;;;;;;;32.65;14.63;;;;;;;-1.90;94.88;100856.03;21033944;28;20098;-66
2022/03/05 06:12:45;;;;;;;45.83;16.90;;;;;;;-1.90;94.96;100861.16;21036334;28;20052;-66
2022/03/05 06:22:46;;;;;;;43.07;17.57;;;;;;;-1.87;94.57;100866.44;21034482;28;20052;-66
2022/03/05 06:32:49;;;;;;;37.97;16.20;;;;;;;-1.91;94.90;100872.25;21031564;28;20098;-66
2022/03/05 06:42:51;;;;;;;39.63;16.92;;;;;;;-1.63;94.00;100881.06;21030954;28;20098;-66
2022/03/05 06:52:52;;;;;;;38.60;15.57;;;;;;;-1.47;93.13;100896.28;21029818;28;20056;-66
2022/03/05 07:02:58;;;;;;;41.22;15.60;;;;;;;-1.35;92.38;100899.34;21029083;28;20098;-65
2022/03/05 07:13:00;;;;;;;36.78;15.77;;;;;;;-1.17;91.20;100903.47;21029624;28;20048;-65
2022/03/05 07:23:04;;;;;;;33.53;14.32;;;;;;;-0.88;89.03;100913.19;21028149;28;20048;-65
2022/03/05 07:33:06;;;;;;;32.40;13.63;;;;;;;-0.64;87.43;100902.97;21026908;28;20052;-66
2022/03/05 07:43:08;;;;;;;32.80;13.80;;;;;;;-0.51;86.36;100917.16;21025853;28;20056;-65
2022/03/05 07:53:09;;;;;;;32.65;13.95;;;;;;;-0.23;84.07;100920.75;21024973;28;20053;-65
2022/03/05 08:03:11;;;;;;;33.53;15.13;;;;;;;0.07;82.75;100926.97;21021138;28;20110;-65
2022/03/05 08:13:13;;;;;;;30.42;14.38;;;;;;;0.37;81.57;100929.72;21018900;28;20055;-66
2022/03/05 08:23:15;;;;;;;29.27;13.82;;;;;;;0.53;78.08;100931.13;21019432;28;20052;-65
2022/03/05 08:33:17;;;;;;;32.45;14.40;;;;;;;0.81;77.49;100935.47;21019935;28;20044;-66
2022/03/05 08:43:18;;;;;;;27.42;14.05;;;;;;;1.15;74.88;100919.38;21017157;28;20138;-66
2022/03/05 08:53:20;;;;;;;31.30;14.88;;;;;;;1.52;73.07;100908.41;21015015;28;20049;-66
2022/03/05 09:03:21;;;;;;;32.00;14.60;;;;;;;1.90;68.66;100907.75;21014070;28;20040;-66
2022/03/05 09:13:23;;;;;;;30.17;13.52;;;;;;;2.30;68.68;100913.16;21044758;28;20063;-66
2022/03/05 09:23:25;;;;;;;28.40;14.88;;;;;;;2.62;67.31;100909.63;21024397;28;20130;-69
2022/03/05 09:33:26;;;;;;;32.08;14.73;;;;;;;2.87;63.46;100901.63;21011826;28;20048;-65
2022/03/05 09:43:28;;;;;;;25.25;13.15;;;;;;;3.27;60.23;100903.41;21013887;28;20415;-66
2022/03/05 09:53:30;;;;;;;29.88;14.50;;;;;;;3.71;60.52;100895.69;21029891;28;20090;-66
2022/03/05 10:03:45;;;;;;;28.35;13.82;;;;;;;4.18;57.90;100895.75;21023791;28;20097;-65
2022/03/05 10:13:47;;;;;;;25.13;11.87;;;;;;;4.56;54.13;100875.66;21024281;28;20057;-66
2022/03/05 10:23:50;;;;;;;24.98;13.32;;;;;;;4.66;54.73;100876.69;21021725;28;20048;-66
2022/03/05 10:33:51;;;;;;;24.17;11.65;;;;;;;4.92;52.80;100874.47;21023234;28;20608;-66
2022/03/05 10:44:07;;;;;;;24.45;12.50;;;;;;;5.30;48.71;100866.34;21023691;28;20060;-65
2022/03/05 10:54:10;;;;;;;21.23;10.80;;;;;;;5.38;47.93;100857.81;21023389;28;20338;-65
2022/03/05 11:04:16;;;;;;;17.88;8.48;;;;;;;5.63;44.21;100856.38;21019563;28;20404;-65
2022/03/05 11:14:18;;;;;;;13.77;7.07;;;;;;;5.69;39.90;100839.97;21024169;28;20048;-66
2022/03/05 11:24:21;;;;;;;13.55;6.63;;;;;;;5.95;42.46;100831.66;21019809;28;20044;-65
2022/03/05 11:34:23;;;;;;;16.13;8.35;;;;;;;6.03;39.91;100822.19;21017982;28;20131;-66
2022/03/05 11:44:28;;;;;;;17.27;7.88;;;;;;;6.07;43.21;100811.81;21017633;28;20987;-65
2022/03/05 11:54:29;;;;;;;12.10;6.32;;;;;;;6.27;40.15;100799.00;21017308;28;20056;-65
2022/03/05 12:04:47;;;;;;;14.05;7.90;;;;;;;6.38;40.44;100791.28;21018539;28;20044;-65
2022/03/05 12:15:00;;;;;;;20.63;10.57;;;;;;;6.52;39.98;100784.47;21018223;28;20082;-66
2022/03/05 12:25:02;;;;;;;18.80;9.75;;;;;;;6.38;41.71;100780.91;21018042;28;20050;-65
2022/03/05 12:35:08;;;;;;;23.10;11.93;;;;;;;6.65;40.65;100777.59;21016199;28;20056;-65
2022/03/05 12:45:17;;;;;;;18.30;10.15;;;;;;;6.71;42.59;100753.34;21015415;28;20406;-66
2022/03/05 12:55:19;;;;;;;17.92;9.85;;;;;;;6.62;41.47;100748.97;21014835;28;20098;-65
2022/03/05 13:05:21;;;;;;;24.35;11.38;;;;;;;6.86;41.11;100743.91;21012768;28;20041;-66
2022/03/05 13:15:26;;;;;;;18.65;8.55;;;;;;;6.78;40.84;100729.09;21016320;28;20048;-65
2022/03/05 13:25:28;;;;;;;14.13;7.70;;;;;;;6.98;39.84;100726.59;21025485;28;20130;-66
2022/03/05 13:35:40;;;;;;;14.93;7.82;;;;;;;6.89;38.17;100717.00;21026843;28;20402;-66
2022/03/05 13:45:41;;;;;;;15.43;7.45;;;;;;;6.87;37.03;100718.72;21028494;28;20110;-66
2022/03/05 13:55:43;;;;;;;12.55;7.22;;;;;;;7.06;36.60;100710.13;21027040;28;20060;-67
2022/03/05 14:05:44;;;;;;;14.60;7.35;;;;;;;7.03;36.35;100704.91;21026463;28;20110;-66
2022/03/05 14:15:47;;;;;;;17.08;7.72;;;;;;;7.14;36.96;100699.75;21028753;28;20185;-66
2022/03/05 14:25:52;;;;;;;15.70;8.00;;;;;;;7.30;36.24;100692.84;21040790;28;20072;-66
2022/03/05 14:35:53;;;;;;;16.67;8.23;;;;;;;6.99;37.42;100704.88;21032051;28;20117;-66
2022/03/05 14:45:55;;;;;;;13.90;7.63;;;;;;;7.03;37.08;100688.41;21021671;28;20077;-66
2022/03/05 14:55:56;;;;;;;13.85;6.88;;;;;;;7.00;35.78;100689.28;21033072;28;20072;-65
2022/03/05 15:05:58;;;;;;;11.68;6.30;;;;;;;6.82;38.56;100684.00;21022402;28;20593;-66
2022/03/05 15:15:59;;;;;;;15.05;6.68;;;;;;;6.88;35.70;100694.44;21023318;28;20055;-65
2022/03/05 15:26:01;;;;;;;11.00;6.00;;;;;;;6.97;35.79;100685.81;21023550;28;20053;-66
2022/03/05 15:36:03;;;;;;;15.50;7.65;;;;;;;6.90;35.49;100688.41;21019174;28;20094;-65
2022/03/05 15:46:08;;;;;;;15.85;8.30;;;;;;;6.79;35.14;100691.78;21030243;28;20056;-65
2022/03/05 15:56:11;;;;;;;11.10;6.50;;;;;;;6.53;36.63;100687.34;21016240;28;20063;-65
2022/03/05 16:06:13;;;;;;;11.68;5.75;;;;;;;6.52;35.47;100689.94;21018325;28;20040;-65
2022/03/05 16:16:14;;;;;;;11.52;6.22;;;;;;;6.43;35.65;100688.16;21017383;28;20056;-65
2022/03/05 16:26:16;;;;;;;12.50;6.10;;;;;;;6.28;36.38;100681.13;21016565;28;20091;-65
2022/03/05 16:36:18;;;;;;;12.57;6.32;;;;;;;5.88;38.64;100693.81;21018553;28;20048;-65
2022/03/05 16:46:20;;;;;;;12.23;6.18;;;;;;;6.06;36.91;100689.66;21012042;28;20049;-65
2022/03/05 16:56:23;;;;;;;13.32;6.88;;;;;;;5.67;38.68;100688.44;21023465;28;20049;-65
2022/03/05 17:06:24;;;;;;;25.23;12.68;;;;;;;5.45;39.35;100689.94;21035080;28;20048;-66
2022/03/05 17:16:26;;;;;;;12.43;6.82;;;;;;;5.33;39.32;100706.28;21033149;28;20517;-65
2022/03/05 17:26:27;;;;;;;20.13;10.20;;;;;;;4.96;40.20;100709.31;21031417;28;20097;-66
2022/03/05 17:36:29;;;;;;;21.25;10.55;;;;;;;4.77;41.29;100719.47;21030002;28;20074;-66
2022/03/05 17:46:30;;;;;;;19.52;11.93;;;;;;;4.54;42.00;100734.72;21023800;28;20048;-66
2022/03/05 17:56:34;;;;;;;24.85;13.43;;;;;;;4.41;42.23;100744.88;21034411;28;20437;-66
2022/03/05 18:06:36;;;;;;;27.73;12.90;;;;;;;4.24;42.77;100748.09;21023979;28;20067;-67
2022/03/05 18:16:37;;;;;;;18.10;11.15;;;;;;;4.04;43.62;100760.75;21029508;28;20045;-67
2022/03/05 18:26:39;;;;;;;20.23;10.82;;;;;;;3.91;44.23;100763.97;21024373;28;20067;-67
2022/03/05 18:36:41;;;;;;;25.88;11.45;;;;;;;3.77;45.46;100779.25;21020528;28;20497;-67
2022/03/05 18:46:42;;;;;;;18.73;9.88;;;;;;;3.74;45.27;100789.59;21026184;28;20044;-66
2022/03/05 18:56:44;;;;;;;20.20;10.25;;;;;;;3.73;45.80;100790.41;20980834;28;20514;-66
2022/03/05 19:06:45;;;;;;;18.42;9.15;;;;;;;3.71;45.98;100799.88;21010012;28;20045;-67
2022/03/05 19:16:49;;;;;;;18.10;9.57;;;;;;;3.48;47.24;100795.97;21022770;28;20481;-66
2022/03/05 19:26:51;;;;;;;22.35;10.65;;;;;;;3.32;48.00;100806.03;21020615;28;20048;-67
2022/03/05 19:36:53;;;;;;;22.85;10.52;;;;;;;3.01;49.06;100814.84;21017854;28;20417;-67
2022/03/05 19:46:54;;;;;;;17.33;9.02;;;;;;;3.00;48.86;100825.19;21022191;28;20045;-66
2022/03/05 19:56:56;;;;;;;23.85;11.00;;;;;;;2.76;49.92;100821.22;21019135;28;20052;-66
2022/03/05 20:06:57;;;;;;;18.67;10.15;;;;;;;2.63;50.42;100829.50;21017635;28;20074;-66
2022/03/05 20:17:00;;;;;;;17.90;9.05;;;;;;;2.37;50.80;100841.84;21018165;28;20040;-67
2022/03/05 20:27:02;;;;;;;18.55;9.05;;;;;;;2.16;51.80;100842.19;21016925;28;20072;-67
2022/03/05 20:37:05;;;;;;;25.55;13.13;;;;;;;2.07;52.94;100854.00;21015881;28;20277;-66
2022/03/05 20:47:07;;;;;;;25.17;12.38;;;;;;;1.83;53.04;100856.81;21015797;28;20044;-66
2022/03/05 20:57:09;;;;;;;26.40;13.50;;;;;;;1.58;53.78;100861.25;21016254;28;20089;-67
2022/03/05 21:07:10;;;;;;;34.35;13.98;;;;;;;1.46;54.41;100850.63;21013809;28;20098;-66
2022/03/05 21:17:12;;;;;;;25.40;12.57;;;;;;;1.25;55.42;100862.06;21016407;28;20048;-67
2022/03/05 21:27:13;;;;;;;27.25;13.73;;;;;;;1.08;56.49;100867.56;21016080;28;20449;-67
2022/03/05 21:37:15;;;;;;;30.25;14.30;;;;;;;0.89;57.12;100860.97;21011743;28;20061;-66
2022/03/05 21:47:17;;;;;;;26.17;13.05;;;;;;;0.81;57.86;100857.25;21026647;28;20046;-65
2022/03/05 21:57:18;;;;;;;26.27;12.70;;;;;;;0.62;58.05;100859.25;21028740;28;20102;-67
2022/03/05 22:07:20;;;;;;;25.00;13.13;;;;;;;0.49;59.51;100857.13;21027565;28;20044;-68
2022/03/05 22:17:21;;;;;;;24.92;11.27;;;;;;;0.15;61.60;100858.59;21109464;22;20056;-68
2022/03/05 22:27:23;;;;;;;25.92;11.07;;;;;;;-0.06;62.47;100857.84;21027256;28;20048;-68
2022/03/05 22:37:24;;;;;;;30.23;13.02;;;;;;;-0.29;62.81;100850.25;21026584;28;20056;-66
2022/03/05 22:47:26;;;;;;;22.90;10.48;;;;;;;-0.47;63.61;100839.28;21111497;28;20158;-67
2022/03/05 22:57:27;;;;;;;25.50;11.75;;;;;;;-0.67;66.35;100850.53;21106888;28;20386;-67
2022/03/05 23:17:48;;;;;;;29.55;13.15;;;;;;;-0.99;68.32;100857.06;21114783;28;20047;-66
2022/03/05 23:27:50;;;;;;;27.23;10.82;;;;;;;-1.16;68.10;100862.41;21113148;28;20048;-66
2022/03/05 23:37:52;;;;;;;23.40;10.50;;;;;;;-1.28;67.33;100855.94;21111296;28;20048;-66
2022/03/05 23:47:53;;;;;;;24.48;10.82;;;;;;;-1.38;68.06;100865.84;21111908;28;20052;-67
2022/03/05 23:57:55;;;;;;;24.40;10.27;;;;;;;-1.40;69.20;100869.16;21111115;28;20051;-66
